This is the latest recevied weather packets stored in our database for station/object YO6SAY-10. If no packets are shown the sender has not sent any weather packets the latest 10 day(s).
| Time | Temp. | Humidity | Pressure | Rain* | Wind** | Luminosity | Snow |
|---|---|---|---|---|---|---|---|
| 1777992383 | 33.89° C | 30% | 946.9 hPa | - | - | - | - |
| 1777991483 | 34.44° C | 29% | 947.2 hPa | - | - | - | - |
| 1777990583 | 35° C | 29% | 947.1 hPa | - | - | - | - |
| 1777989683 | 35° C | 30% | 947.2 hPa | - | - | - | - |
| 1777988783 | 35.56° C | 30% | 947.3 hPa | - | - | - | - |
| 1777987883 | 36.11° C | 29% | 947.5 hPa | - | - | - | - |
| 1777986983 | 36.67° C | 30% | 947.6 hPa | - | - | - | - |
| 1777986082 | 36.67° C | 29% | 947.7 hPa | - | - | - | - |
| 1777985182 | 36.67° C | 29% | 947.9 hPa | - | - | - | - |
| 1777984282 | 36.67° C | 27% | 948.1 hPa | - | - | - | - |
| 1777983382 | 35° C | 28% | 948.3 hPa | - | - | - | - |
| 1777982482 | 32.78° C | 30% | 948.4 hPa | - | - | - | - |
| 1777981582 | 29.44° C | 33% | 948.5 hPa | - | - | - | - |
| 1777980681 | 25° C | 37% | 948.5 hPa | - | - | - | - |
| 1777979781 | 18.89° C | 42% | 948.7 hPa | - | - | - | - |
| 1777978881 | 17.78° C | 43% | 948.8 hPa | - | - | - | - |
| 1777977981 | 17.22° C | 44% | 948.9 hPa | - | - | - | - |
| 1777977080 | 17.22° C | 45% | 949 hPa | - | - | - | - |
| 1777976180 | 16.67° C | 46% | 949.1 hPa | - | - | - | - |
| 1777975280 | 16.67° C | 46% | 949.3 hPa | - | - | - | - |
| 1777974379 | 16.67° C | 46% | 949.5 hPa | - | - | - | - |
| 1777973479 | 16.11° C | 45% | 949.7 hPa | - | - | - | - |
| 1777972579 | 16.11° C | 46% | 949.8 hPa | - | - | - | - |
| 1777971679 | 15.56° C | 46% | 949.9 hPa | - | - | - | - |
| 1777970779 | 15.56° C | 46% | 950 hPa | - | - | - | - |
* Rain since midnight (hover to see other rain measurements)
** Current wind speed in m/s (hover to see current wind gust speed)